Time;durP1;ratioP1;P1;durP2;ratioP2;P2;SDS_P1;SDS_P2;PMS_P1;PMS_P2;Temp;Humidity;BMP_temperature;BMP_pressure;BME280_temperature;BME280_humidity;BME280_pressure;Samples;Min_cycle;Max_cycle;Signal;HPM_P1;HPM_P2
2023/06/24 00:00:36;;;;;;;;;;;25.10;91.90;;;;;;5094515;28;20429;-43
2023/06/24 00:03:02;;;;;;;;;;;25.10;91.90;;;;;;5094139;28;20377;-46
2023/06/24 00:05:28;;;;;;;;;;;25.10;91.90;;;;;;5094473;28;19916;-44
2023/06/24 00:07:56;;;;;;;;;;;25.10;91.90;;;;;;5094067;28;20362;-45
2023/06/24 00:10:22;;;;;;;;;;;25.10;91.90;;;;;;5094269;28;19915;-43
2023/06/24 00:12:47;;;;;;;;;;;25.10;91.90;;;;;;5094454;28;19909;-42
2023/06/24 00:15:13;;;;;;;;;;;25.10;91.90;;;;;;5094052;28;19908;-43
2023/06/24 00:17:38;;;;;;;;;;;25.10;91.90;;;;;;5094149;28;19919;-48
2023/06/24 00:20:07;;;;;;;;;;;25.10;91.90;;;;;;5094376;28;20058;-46
2023/06/24 00:22:32;;;;;;;;;;;25.10;91.90;;;;;;5094202;28;20252;-43
2023/06/24 00:24:58;;;;;;;;;;;25.10;91.90;;;;;;5094061;28;19923;-48
2023/06/24 00:27:24;;;;;;;;;;;25.10;91.90;;;;;;5094346;28;20274;-44
2023/06/24 00:29:50;;;;;;;;;;;25.10;91.90;;;;;;5094278;28;19915;-44
2023/06/24 00:32:15;;;;;;;;;;;25.10;91.90;;;;;;5094305;28;19908;-45
2023/06/24 00:34:45;;;;;;;;;;;25.10;91.90;;;;;;5093902;28;19908;-43
2023/06/24 00:37:10;;;;;;;;;;;25.10;91.90;;;;;;5093942;28;19915;-47
2023/06/24 00:39:35;;;;;;;;;;;25.10;91.90;;;;;;5094542;28;19908;-44
2023/06/24 00:42:01;;;;;;;;;;;25.10;91.90;;;;;;5094471;28;19908;-43
2023/06/24 00:44:27;;;;;;;;;;;25.10;91.90;;;;;;5094102;28;20269;-46
2023/06/24 00:46:53;;;;;;;;;;;25.00;91.90;;;;;;5093936;28;19912;-44
2023/06/24 00:49:19;;;;;;;;;;;25.10;91.90;;;;;;5094401;28;19908;-47
2023/06/24 00:51:50;;;;;;;;;;;25.10;91.90;;;;;;5093716;28;19915;-44
2023/06/24 00:54:16;;;;;;;;;;;25.10;91.90;;;;;;5094085;28;19912;-44
2023/06/24 00:56:42;;;;;;;;;;;25.10;91.90;;;;;;5093869;28;20346;-45
2023/06/24 00:59:10;;;;;;;;;;;25.10;91.90;;;;;;5093976;28;19952;-46
2023/06/24 01:01:35;;;;;;;;;;;25.10;91.90;;;;;;5093564;28;19912;-42
2023/06/24 01:04:01;;;;;;;;;;;25.00;91.80;;;;;;5093811;28;19917;-44
2023/06/24 01:06:30;;;;;;;;;;;25.00;91.80;;;;;;5093940;28;20002;-46
2023/06/24 01:09:00;;;;;;;;;;;25.00;91.80;;;;;;5093605;28;19919;-45
2023/06/24 01:11:29;;;;;;;;;;;25.10;91.80;;;;;;5094174;28;19912;-45
2023/06/24 01:13:54;;;;;;;;;;;25.00;91.80;;;;;;5093871;28;19908;-43
2023/06/24 01:16:38;;;;;;;;;;;25.00;91.80;;;;;;5093825;28;19912;-42
2023/06/24 01:19:12;;;;;;;;;;;25.00;91.80;;;;;;5093879;28;19908;-43
2023/06/24 01:21:44;;;;;;;;;;;25.00;91.80;;;;;;5097422;28;19908;-47
2023/06/24 01:24:13;;;;;;;;;;;25.00;91.80;;;;;;5097684;28;19939;-44
2023/06/24 01:26:52;;;;;;;;;;;25.00;91.80;;;;;;5097657;28;19908;-44
2023/06/24 01:29:35;;;;;;;;;;;25.00;91.80;;;;;;5097586;28;19908;-43
2023/06/24 01:32:20;;;;;;;;;;;25.00;91.80;;;;;;5097797;28;19961;-45
2023/06/24 01:34:51;;;;;;;;;;;25.00;91.80;;;;;;5097130;28;19934;-45
2023/06/24 01:37:33;;;;;;;;;;;25.00;91.80;;;;;;5097381;28;20011;-43
2023/06/24 01:40:00;;;;;;;;;;;25.00;91.80;;;;;;5097677;28;19999;-43
2023/06/24 01:42:28;;;;;;;;;;;25.00;91.80;;;;;;5097300;28;19956;-43
2023/06/24 01:44:53;;;;;;;;;;;25.00;91.90;;;;;;5079017;28;20367;-44
2023/06/24 01:47:20;;;;;;;;;;;25.00;91.90;;;;;;5096935;28;19920;-42
2023/06/24 01:49:45;;;;;;;;;;;25.00;91.80;;;;;;5096811;28;20401;-43
2023/06/24 01:52:11;;;;;;;;;;;25.00;91.80;;;;;;5097157;28;19958;-43
2023/06/24 01:54:38;;;;;;;;;;;25.00;91.90;;;;;;5096689;28;20275;-44
2023/06/24 01:57:05;;;;;;;;;;;25.00;91.90;;;;;;5097061;28;19999;-44
2023/06/24 01:59:31;;;;;;;;;;;25.00;91.90;;;;;;5096967;28;19915;-45
2023/06/24 02:01:57;;;;;;;;;;;25.00;91.90;;;;;;5096936;28;19912;-44
2023/06/24 02:04:23;;;;;;;;;;;25.00;91.90;;;;;;5096503;28;19916;-43
2023/06/24 02:06:50;;;;;;;;;;;25.00;91.90;;;;;;5096515;28;20332;-45
2023/06/24 02:09:17;;;;;;;;;;;25.00;91.90;;;;;;5096811;28;19912;-43
2023/06/24 02:11:43;;;;;;;;;;;25.00;91.90;;;;;;5096840;28;19908;-43
2023/06/24 02:14:09;;;;;;;;;;;25.00;91.90;;;;;;5096609;28;19908;-45
2023/06/24 02:16:35;;;;;;;;;;;25.00;91.90;;;;;;5096962;28;20270;-45
2023/06/24 02:19:02;;;;;;;;;;;25.00;91.90;;;;;;5096588;28;19908;-44
2023/06/24 02:21:28;;;;;;;;;;;25.00;91.90;;;;;;5096215;28;20324;-45
2023/06/24 02:23:53;;;;;;;;;;;25.00;91.90;;;;;;5096355;28;19969;-43
2023/06/24 02:26:20;;;;;;;;;;;25.00;91.90;;;;;;5096146;28;19998;-43
2023/06/24 02:28:46;;;;;;;;;;;25.00;91.90;;;;;;5096047;28;20024;-45
2023/06/24 02:31:12;;;;;;;;;;;25.00;91.90;;;;;;5095922;28;20363;-44
2023/06/24 02:33:37;;;;;;;;;;;25.00;91.90;;;;;;5096064;28;19908;-45
2023/06/24 02:36:03;;;;;;;;;;;25.00;91.90;;;;;;5078170;28;20003;-47
2023/06/24 02:38:28;;;;;;;;;;;25.00;91.90;;;;;;5095972;28;20351;-43
2023/06/24 02:40:54;;;;;;;;;;;25.00;91.90;;;;;;5096161;28;19909;-44
2023/06/24 02:43:20;;;;;;;;;;;25.00;91.90;;;;;;5078006;28;19908;-46
2023/06/24 02:45:47;;;;;;;;;;;25.00;91.90;;;;;;5096001;28;19965;-44
2023/06/24 02:48:12;;;;;;;;;;;25.00;91.90;;;;;;5096038;28;20350;-44
2023/06/24 02:50:40;;;;;;;;;;;25.00;91.90;;;;;;5095597;28;19915;-46
2023/06/24 02:53:06;;;;;;;;;;;24.90;91.90;;;;;;5095937;28;19954;-42
2023/06/24 02:55:33;;;;;;;;;;;25.00;91.90;;;;;;5096170;28;19912;-49
2023/06/24 02:57:58;;;;;;;;;;;24.90;91.90;;;;;;5095859;28;20055;-44
2023/06/24 03:00:25;;;;;;;;;;;24.90;91.90;;;;;;5095844;28;20029;-43
2023/06/24 03:02:51;;;;;;;;;;;25.00;91.90;;;;;;5095458;28;20041;-44
2023/06/24 03:05:18;;;;;;;;;;;24.90;91.90;;;;;;5095377;28;20023;-45
2023/06/24 03:07:44;;;;;;;;;;;25.00;91.90;;;;;;5095361;28;19916;-43
2023/06/24 03:10:10;;;;;;;;;;;24.90;91.90;;;;;;5095429;28;19908;-45
2023/06/24 03:12:36;;;;;;;;;;;24.90;91.90;;;;;;5077266;28;19918;-42
2023/06/24 03:15:01;;;;;;;;;;;24.90;91.90;;;;;;5095218;28;19908;-43
2023/06/24 03:17:27;;;;;;;;;;;25.00;91.90;;;;;;5095224;28;20339;-44
2023/06/24 03:19:52;;;;;;;;;;;24.90;91.90;;;;;;5095149;28;20286;-43
2023/06/24 03:22:18;;;;;;;;;;;24.90;91.90;;;;;;5095400;28;19915;-43
2023/06/24 03:24:43;;;;;;;;;;;24.90;91.90;;;;;;5095265;28;20000;-45
2023/06/24 03:27:09;;;;;;;;;;;24.90;91.90;;;;;;5095009;28;19942;-43
2023/06/24 03:29:34;;;;;;;;;;;24.90;91.90;;;;;;5094952;28;19999;-44
2023/06/24 03:32:00;;;;;;;;;;;24.90;91.90;;;;;;5094917;28;20463;-46
2023/06/24 03:34:26;;;;;;;;;;;24.90;91.90;;;;;;5095062;28;19912;-43
2023/06/24 03:36:54;;;;;;;;;;;24.90;91.90;;;;;;5095130;28;19915;-43
2023/06/24 03:39:20;;;;;;;;;;;24.90;91.90;;;;;;5094779;28;19922;-45
2023/06/24 03:41:45;;;;;;;;;;;24.90;91.90;;;;;;5095040;28;19962;-44
2023/06/24 03:44:11;;;;;;;;;;;24.90;91.80;;;;;;5094158;28;19970;-43
2023/06/24 03:46:36;;;;;;;;;;;24.90;91.80;;;;;;5094470;28;19909;-43
2023/06/24 03:49:02;;;;;;;;;;;24.90;91.90;;;;;;5094890;28;19908;-42
2023/06/24 03:51:27;;;;;;;;;;;24.90;91.90;;;;;;5094783;28;20312;-43
2023/06/24 03:53:53;;;;;;;;;;;24.90;91.90;;;;;;5094451;28;19908;-44
2023/06/24 03:56:18;;;;;;;;;;;24.90;91.90;;;;;;5094398;28;20274;-46
2023/06/24 03:58:44;;;;;;;;;;;24.90;91.90;;;;;;5094710;28;19908;-43
2023/06/24 04:01:09;;;;;;;;;;;24.90;91.90;;;;;;5076426;28;19947;-43
2023/06/24 04:03:35;;;;;;;;;;;24.90;91.90;;;;;;5094543;28;19957;-46
2023/06/24 04:06:03;;;;;;;;;;;24.90;91.90;;;;;;5076343;28;19908;-42
2023/06/24 04:08:29;;;;;;;;;;;24.90;90.90;;;;;;5094108;28;19908;-43
2023/06/24 04:10:55;;;;;;;;;;;24.80;83.50;;;;;;5094730;28;19914;-43
2023/06/24 04:13:20;;;;;;;;;;;24.80;89.00;;;;;;5094177;28;19916;-45
2023/06/24 04:15:46;;;;;;;;;;;24.80;90.60;;;;;;5094328;28;19908;-45
2023/06/24 04:18:11;;;;;;;;;;;24.80;90.90;;;;;;5094185;28;19909;-43
2023/06/24 04:20:37;;;;;;;;;;;24.80;91.10;;;;;;5094368;28;19962;-42
2023/06/24 04:23:03;;;;;;;;;;;24.80;91.10;;;;;;5094078;28;20053;-46
2023/06/24 04:25:29;;;;;;;;;;;24.80;91.20;;;;;;5094201;28;19923;-44
2023/06/24 04:27:54;;;;;;;;;;;24.80;91.20;;;;;;5094038;28;19908;-43
2023/06/24 04:30:19;;;;;;;;;;;24.70;91.20;;;;;;5075866;28;19933;-43
2023/06/24 04:32:45;;;;;;;;;;;24.80;91.30;;;;;;5093987;28;19912;-45
2023/06/24 04:35:10;;;;;;;;;;;24.80;91.30;;;;;;5094410;28;19908;-42
2023/06/24 04:37:36;;;;;;;;;;;24.80;91.30;;;;;;5076036;28;20371;-47
2023/06/24 04:40:02;;;;;;;;;;;24.70;91.30;;;;;;5093906;28;19915;-46
2023/06/24 04:42:27;;;;;;;;;;;24.80;91.40;;;;;;5094507;28;19908;-47
2023/06/24 04:44:53;;;;;;;;;;;24.70;91.30;;;;;;5076020;28;19939;-46
2023/06/24 04:47:19;;;;;;;;;;;24.70;91.40;;;;;;5075662;28;19920;-43
2023/06/24 04:49:44;;;;;;;;;;;24.80;91.40;;;;;;5094226;28;19908;-43
2023/06/24 04:52:13;;;;;;;;;;;24.80;91.40;;;;;;5093897;28;19908;-43
2023/06/24 04:54:38;;;;;;;;;;;24.80;91.50;;;;;;5094513;28;20389;-45
2023/06/24 04:57:05;;;;;;;;;;;24.70;91.40;;;;;;5097910;28;19908;-43
2023/06/24 04:59:31;;;;;;;;;;;24.80;91.50;;;;;;5097850;28;19909;-45
2023/06/24 05:01:56;;;;;;;;;;;24.80;91.50;;;;;;5098405;28;19961;-45
2023/06/24 05:04:22;;;;;;;;;;;24.80;91.50;;;;;;5097969;28;20283;-42
2023/06/24 05:06:48;;;;;;;;;;;24.80;91.50;;;;;;5097991;28;20049;-43
2023/06/24 05:09:14;;;;;;;;;;;24.80;91.50;;;;;;5097701;28;19908;-45
2023/06/24 05:11:40;;;;;;;;;;;24.80;91.50;;;;;;5079557;28;20324;-45
2023/06/24 05:14:05;;;;;;;;;;;24.80;91.50;;;;;;5097723;28;19948;-43
2023/06/24 05:16:31;;;;;;;;;;;24.80;91.50;;;;;;5079560;28;19974;-43
2023/06/24 05:18:56;;;;;;;;;;;24.80;91.60;;;;;;5097754;28;20418;-44
2023/06/24 05:21:22;;;;;;;;;;;24.80;91.60;;;;;;5097502;28;19954;-45
2023/06/24 05:23:47;;;;;;;;;;;24.80;91.50;;;;;;5097340;28;19908;-43
2023/06/24 05:26:13;;;;;;;;;;;24.80;91.60;;;;;;5097319;28;19974;-43
2023/06/24 05:28:39;;;;;;;;;;;24.80;91.60;;;;;;5097485;28;19911;-44
2023/06/24 05:31:04;;;;;;;;;;;24.80;91.60;;;;;;5097430;28;19908;-48
2023/06/24 05:33:30;;;;;;;;;;;24.80;91.60;;;;;;5097418;28;19915;-43
2023/06/24 05:35:56;;;;;;;;;;;24.80;91.60;;;;;;5097713;28;19919;-43
2023/06/24 05:38:21;;;;;;;;;;;24.90;91.60;;;;;;5097266;28;20267;-45
2023/06/24 05:40:47;;;;;;;;;;;24.80;91.60;;;;;;5097377;28;19908;-46
2023/06/24 05:43:12;;;;;;;;;;;24.80;91.60;;;;;;5097305;28;20332;-45
2023/06/24 05:45:37;;;;;;;;;;;24.80;91.60;;;;;;5079033;28;19923;-43
2023/06/24 05:48:03;;;;;;;;;;;24.80;91.60;;;;;;5097085;28;19959;-46
2023/06/24 05:50:29;;;;;;;;;;;24.80;91.60;;;;;;5097169;28;19909;-46
2023/06/24 05:52:54;;;;;;;;;;;24.90;91.70;;;;;;5097071;28;20274;-44
2023/06/24 05:55:20;;;;;;;;;;;24.80;91.70;;;;;;5096723;28;19908;-47
2023/06/24 05:57:45;;;;;;;;;;;24.80;91.60;;;;;;5096896;28;19912;-43
2023/06/24 06:00:11;;;;;;;;;;;24.80;91.60;;;;;;5095369;28;20409;-44
2023/06/24 06:02:36;;;;;;;;;;;24.80;91.70;;;;;;5078556;28;20359;-43
2023/06/24 06:05:02;;;;;;;;;;;24.80;91.60;;;;;;5096391;28;20018;-43
2023/06/24 06:07:28;;;;;;;;;;;24.80;91.70;;;;;;5096354;28;19929;-44
2023/06/24 06:09:53;;;;;;;;;;;24.80;91.70;;;;;;5096671;28;19908;-47
2023/06/24 06:12:19;;;;;;;;;;;24.80;91.70;;;;;;5096908;28;19911;-45
2023/06/24 06:14:44;;;;;;;;;;;24.80;91.70;;;;;;5096346;28;20271;-44
2023/06/24 06:17:10;;;;;;;;;;;24.80;91.70;;;;;;5096041;28;19991;-44
2023/06/24 06:19:35;;;;;;;;;;;24.80;91.70;;;;;;5096399;28;20007;-47
2023/06/24 06:22:01;;;;;;;;;;;24.80;91.70;;;;;;5096493;28;19915;-46
2023/06/24 06:24:26;;;;;;;;;;;24.80;91.70;;;;;;5095964;28;19916;-44
2023/06/24 06:26:52;;;;;;;;;;;24.80;91.70;;;;;;5096361;28;19909;-47
2023/06/24 06:29:17;;;;;;;;;;;24.80;91.70;;;;;;5110643;28;20358;-46
2023/06/24 06:31:43;;;;;;;;;;;24.80;91.80;;;;;;5116729;28;20381;-46
2023/06/24 06:34:08;;;;;;;;;;;24.80;91.80;;;;;;5108829;28;19958;-44
2023/06/24 06:36:34;;;;;;;;;;;24.90;91.80;;;;;;5107813;28;20381;-44
2023/06/24 06:38:59;;;;;;;;;;;24.90;91.80;;;;;;5096011;28;19909;-44
2023/06/24 06:41:25;;;;;;;;;;;24.90;91.80;;;;;;5095422;28;19908;-47
2023/06/24 06:43:51;;;;;;;;;;;24.90;91.80;;;;;;5099921;28;20367;-44
2023/06/24 06:46:16;;;;;;;;;;;24.90;91.80;;;;;;5099729;28;20347;-43
2023/06/24 06:48:42;;;;;;;;;;;24.90;91.80;;;;;;5095539;28;19920;-45
2023/06/24 06:51:07;;;;;;;;;;;24.80;91.80;;;;;;5096820;28;20006;-44
2023/06/24 06:53:33;;;;;;;;;;;24.90;91.80;;;;;;5100514;28;19935;-45
2023/06/24 06:55:58;;;;;;;;;;;24.90;91.80;;;;;;5096838;28;20063;-42
2023/06/24 06:58:24;;;;;;;;;;;24.90;91.80;;;;;;5097101;28;20319;-44
2023/06/24 07:00:50;;;;;;;;;;;24.90;91.80;;;;;;5103657;28;19912;-43
2023/06/24 07:03:15;;;;;;;;;;;24.90;91.80;;;;;;5095901;28;20434;-45
2023/06/24 07:05:41;;;;;;;;;;;24.90;91.80;;;;;;5095485;28;19993;-43
2023/06/24 07:08:06;;;;;;;;;;;24.90;92.00;;;;;;5095330;28;19908;-45
2023/06/24 07:10:32;;;;;;;;;;;24.90;91.80;;;;;;5077284;28;19908;-43
2023/06/24 07:12:57;;;;;;;;;;;24.90;91.80;;;;;;5095182;28;19908;-44
2023/06/24 07:15:26;;;;;;;;;;;24.90;91.80;;;;;;5095328;28;20003;-45
2023/06/24 07:17:52;;;;;;;;;;;24.90;91.80;;;;;;5094319;28;19914;-43
2023/06/24 07:20:18;;;;;;;;;;;24.90;91.80;;;;;;5095607;28;19925;-43
2023/06/24 07:22:43;;;;;;;;;;;24.90;91.80;;;;;;5076927;28;19981;-45
2023/06/24 07:25:09;;;;;;;;;;;24.90;91.80;;;;;;5094975;28;20349;-43
2023/06/24 07:27:34;;;;;;;;;;;24.90;91.70;;;;;;5080930;28;19911;-44
2023/06/24 07:30:00;;;;;;;;;;;24.90;91.70;;;;;;5099781;28;19961;-43
2023/06/24 07:32:25;;;;;;;;;;;24.90;91.70;;;;;;5094829;28;19916;-43
2023/06/24 07:34:51;;;;;;;;;;;24.90;91.80;;;;;;5071350;28;19912;-44
2023/06/24 07:37:16;;;;;;;;;;;24.90;91.80;;;;;;5097917;28;19912;-42
2023/06/24 07:39:42;;;;;;;;;;;24.90;91.80;;;;;;5080688;28;20029;-43
2023/06/24 07:42:07;;;;;;;;;;;24.90;91.80;;;;;;5076204;28;19912;-44
2023/06/24 07:44:33;;;;;;;;;;;24.90;91.80;;;;;;5112832;28;19920;-46
2023/06/24 07:46:58;;;;;;;;;;;24.90;91.80;;;;;;5097162;28;20270;-45
2023/06/24 07:49:24;;;;;;;;;;;24.90;91.70;;;;;;5091087;28;20382;-49
2023/06/24 07:51:49;;;;;;;;;;;24.90;91.70;;;;;;5095004;28;20403;-46
2023/06/24 07:54:15;;;;;;;;;;;24.90;91.70;;;;;;5106825;28;19919;-46
2023/06/24 07:56:40;;;;;;;;;;;24.90;91.70;;;;;;5104563;28;19920;-48
2023/06/24 07:59:06;;;;;;;;;;;24.90;91.70;;;;;;5094474;28;19945;-46
2023/06/24 08:01:31;;;;;;;;;;;24.90;91.60;;;;;;5113308;28;19916;-45
2023/06/24 08:03:57;;;;;;;;;;;24.90;91.60;;;;;;5096387;28;19915;-46
2023/06/24 08:06:22;;;;;;;;;;;24.90;91.50;;;;;;5090064;28;20262;-41
2023/06/24 08:08:48;;;;;;;;;;;24.90;91.50;;;;;;5074251;28;19912;-46
2023/06/24 08:11:13;;;;;;;;;;;24.90;91.50;;;;;;5083415;28;19920;-46
2023/06/24 08:13:39;;;;;;;;;;;24.90;91.50;;;;;;5094095;28;20006;-50
2023/06/24 08:16:04;;;;;;;;;;;24.90;91.50;;;;;;5092793;28;20362;-43
2023/06/24 08:18:30;;;;;;;;;;;24.90;91.20;;;;;;5093898;28;20343;-42
2023/06/24 08:20:55;;;;;;;;;;;24.90;91.20;;;;;;5093650;28;20271;-45
2023/06/24 08:23:21;;;;;;;;;;;24.90;91.20;;;;;;5093937;28;19915;-46
2023/06/24 08:25:46;;;;;;;;;;;24.90;91.20;;;;;;5093765;28;20014;-45
2023/06/24 08:28:12;;;;;;;;;;;24.90;91.20;;;;;;5094732;28;19916;-45
2023/06/24 08:30:37;;;;;;;;;;;24.90;91.30;;;;;;5093809;28;19931;-45
2023/06/24 08:33:03;;;;;;;;;;;24.90;91.30;;;;;;5075754;28;19916;-45
2023/06/24 08:35:28;;;;;;;;;;;24.90;91.30;;;;;;5094888;28;19962;-45
2023/06/24 08:37:54;;;;;;;;;;;24.90;91.40;;;;;;5092475;28;20243;-47
2023/06/24 08:40:19;;;;;;;;;;;24.90;91.40;;;;;;5114244;28;19908;-48
2023/06/24 08:42:45;;;;;;;;;;;24.90;91.40;;;;;;5105180;28;20007;-44
2023/06/24 08:45:10;;;;;;;;;;;24.90;91.40;;;;;;5096079;28;19916;-46
2023/06/24 08:47:36;;;;;;;;;;;24.90;91.40;;;;;;5096031;28;20363;-45
2023/06/24 08:50:03;;;;;;;;;;;24.90;91.40;;;;;;5114186;28;19907;-47
2023/06/24 08:52:30;;;;;;;;;;;24.90;91.40;;;;;;5110927;28;19991;-46
2023/06/24 08:54:56;;;;;;;;;;;24.90;91.40;;;;;;5099084;28;19912;-44
2023/06/24 08:57:23;;;;;;;;;;;24.90;90.90;;;;;;5108691;28;19951;-44
2023/06/24 08:59:48;;;;;;;;;;;24.70;83.00;;;;;;5102508;28;19916;-45
2023/06/24 09:02:14;;;;;;;;;;;24.60;81.10;;;;;;5097469;28;19919;-46
2023/06/24 09:04:40;;;;;;;;;;;24.50;81.30;;;;;;5109612;28;20647;-47
2023/06/24 09:07:05;;;;;;;;;;;24.50;80.40;;;;;;5099141;28;19927;-44
2023/06/24 09:09:31;;;;;;;;;;;24.40;80.70;;;;;;5093542;28;20259;-42
2023/06/24 09:11:57;;;;;;;;;;;24.50;79.00;;;;;;5095584;28;19919;-45
2023/06/24 09:14:27;;;;;;;;;;;24.40;76.30;;;;;;5093626;28;19913;-42
2023/06/24 09:16:55;;;;;;;;;;;24.40;77.10;;;;;;5092441;28;19912;-44
2023/06/24 09:19:22;;;;;;;;;;;24.40;76.80;;;;;;5092654;28;20361;-52
2023/06/24 09:21:47;;;;;;;;;;;24.30;74.70;;;;;;5092034;28;19916;-47
2023/06/24 09:24:13;;;;;;;;;;;24.40;78.30;;;;;;5090823;28;19965;-48
2023/06/24 09:26:38;;;;;;;;;;;24.40;80.40;;;;;;5088054;28;19916;-45
2023/06/24 09:29:03;;;;;;;;;;;24.40;78.50;;;;;;5091985;28;20055;-47
2023/06/24 09:31:29;;;;;;;;;;;24.40;78.20;;;;;;5089714;28;19912;-53
2023/06/24 09:33:58;;;;;;;;;;;24.40;78.20;;;;;;5093799;28;20290;-53
2023/06/24 09:36:23;;;;;;;;;;;24.40;77.20;;;;;;5090164;28;19927;-52
2023/06/24 09:38:49;;;;;;;;;;;24.50;78.30;;;;;;5070959;28;19912;-54
2023/06/24 09:41:15;;;;;;;;;;;24.50;79.60;;;;;;5087521;28;19908;-54
2023/06/24 09:43:42;;;;;;;;;;;24.50;80.80;;;;;;5095430;28;19916;-53
2023/06/24 09:46:08;;;;;;;;;;;24.50;81.70;;;;;;5097569;28;20860;-50
2023/06/24 09:48:33;;;;;;;;;;;24.50;82.50;;;;;;5097292;28;19924;-51
2023/06/24 09:51:00;;;;;;;;;;;24.50;83.00;;;;;;5076457;28;19915;-52
2023/06/24 09:53:27;;;;;;;;;;;24.50;83.50;;;;;;5076179;28;20294;-50
2023/06/24 09:55:53;;;;;;;;;;;24.50;84.00;;;;;;5076416;28;20289;-51
2023/06/24 09:58:19;;;;;;;;;;;24.50;84.40;;;;;;5076236;28;19954;-50
2023/06/24 10:00:44;;;;;;;;;;;24.60;84.80;;;;;;5058420;28;19959;-50
2023/06/24 10:03:10;;;;;;;;;;;24.50;85.10;;;;;;5076346;28;20252;-52
2023/06/24 10:05:36;;;;;;;;;;;24.50;85.30;;;;;;5076084;28;19993;-52
2023/06/24 10:08:03;;;;;;;;;;;24.50;85.60;;;;;;5076347;28;20320;-52
2023/06/24 10:10:28;;;;;;;;;;;24.50;85.80;;;;;;5076394;28;19908;-51
2023/06/24 10:12:54;;;;;;;;;;;24.60;86.10;;;;;;5076006;28;20225;-49
2023/06/24 10:15:19;;;;;;;;;;;24.60;86.20;;;;;;5076194;28;19909;-50
2023/06/24 10:17:45;;;;;;;;;;;24.60;86.40;;;;;;5075889;28;19916;-50
2023/06/24 10:20:11;;;;;;;;;;;24.60;86.50;;;;;;5076107;28;19908;-52
2023/06/24 10:22:36;;;;;;;;;;;24.60;86.70;;;;;;5075571;28;19908;-51
2023/06/24 10:25:05;;;;;;;;;;;24.60;86.90;;;;;;5058086;28;19924;-49
2023/06/24 10:27:38;;;;;;;;;;;24.60;87.00;;;;;;5075998;28;19951;-50
2023/06/24 10:30:07;;;;;;;;;;;24.60;87.20;;;;;;5075753;28;20003;-49
2023/06/24 10:32:39;;;;;;;;;;;24.60;87.30;;;;;;5075677;28;19909;-50
2023/06/24 10:35:05;;;;;;;;;;;24.50;87.40;;;;;;5075717;28;19962;-53
2023/06/24 10:37:31;;;;;;;;;;;24.60;87.50;;;;;;5075620;28;19908;-52
2023/06/24 10:39:58;;;;;;;;;;;24.60;87.70;;;;;;5075747;28;20027;-50
2023/06/24 10:42:26;;;;;;;;;;;24.60;87.70;;;;;;5075741;28;19966;-53
2023/06/24 10:44:53;;;;;;;;;;;24.60;87.80;;;;;;5075253;28;19916;-49
2023/06/24 10:47:19;;;;;;;;;;;24.60;87.90;;;;;;5075535;28;20038;-51
2023/06/24 10:49:45;;;;;;;;;;;24.60;87.80;;;;;;5075742;28;19909;-54
2023/06/24 10:52:10;;;;;;;;;;;24.60;87.60;;;;;;5056542;28;19908;-51
2023/06/24 10:54:40;;;;;;;;;;;24.60;87.50;;;;;;5057183;28;20008;-49
2023/06/24 10:57:07;;;;;;;;;;;24.60;87.60;;;;;;5075021;28;19919;-52
2023/06/24 10:59:36;;;;;;;;;;;24.60;87.70;;;;;;5075171;28;20331;-49
2023/06/24 11:02:01;;;;;;;;;;;24.60;87.70;;;;;;5075310;28;20330;-50
2023/06/24 11:04:27;;;;;;;;;;;24.60;87.90;;;;;;5074807;28;20374;-53
2023/06/24 11:06:59;;;;;;;;;;;24.60;88.10;;;;;;5074653;28;20369;-52
2023/06/24 11:09:24;;;;;;;;;;;24.60;88.30;;;;;;5074570;28;20367;-50
2023/06/24 11:11:50;;;;;;;;;;;24.60;88.50;;;;;;5056660;28;20008;-55
2023/06/24 11:14:15;;;;;;;;;;;24.60;88.50;;;;;;5075130;28;19912;-55
2023/06/24 11:16:41;;;;;;;;;;;24.60;88.60;;;;;;5056692;28;20067;-54
2023/06/24 11:19:06;;;;;;;;;;;24.60;88.70;;;;;;5074901;28;20401;-51
2023/06/24 11:21:32;;;;;;;;;;;24.60;88.70;;;;;;5074918;28;19915;-53
2023/06/24 11:24:01;;;;;;;;;;;24.60;88.80;;;;;;5074791;28;19908;-51
2023/06/24 11:26:27;;;;;;;;;;;24.60;88.90;;;;;;5074336;28;20441;-53
2023/06/24 11:28:52;;;;;;;;;;;24.60;89.00;;;;;;5074644;28;19909;-53
2023/06/24 11:31:18;;;;;;;;;;;24.60;89.50;;;;;;5074336;28;19908;-54
2023/06/24 11:33:48;;;;;;;;;;;24.60;89.00;;;;;;5074323;28;19913;-50
2023/06/24 11:36:16;;;;;;;;;;;24.60;89.00;;;;;;5074476;28;20315;-53
2023/06/24 11:38:42;;;;;;;;;;;24.60;89.00;;;;;;5074565;28;20279;-53
2023/06/24 11:41:07;;;;;;;;;;;24.60;88.90;;;;;;5074228;28;19908;-52
2023/06/24 11:43:33;;;;;;;;;;;24.60;88.70;;;;;;5056343;28;19991;-55
2023/06/24 11:45:58;;;;;;;;;;;24.60;88.90;;;;;;5074351;28;20371;-52
2023/06/24 11:48:30;;;;;;;;;;;24.60;88.90;;;;;;5074493;28;19928;-53
2023/06/24 11:50:58;;;;;;;;;;;24.60;89.00;;;;;;5073686;28;21286;-52
2023/06/24 11:53:43;;;;;;;;;;;24.60;89.00;;;;;;5074366;28;20000;-50
2023/06/24 11:56:08;;;;;;;;;;;24.70;89.10;;;;;;5055931;28;19908;-49
2023/06/24 11:58:35;;;;;;;;;;;24.60;89.10;;;;;;5073885;28;19996;-48
2023/06/24 12:01:01;;;;;;;;;;;24.60;88.60;;;;;;5074377;28;19962;-49
2023/06/24 12:03:27;;;;;;;;;;;24.60;88.50;;;;;;5073951;28;19908;-49
2023/06/24 12:05:53;;;;;;;;;;;24.60;88.60;;;;;;5073835;28;20428;-52
2023/06/24 12:08:18;;;;;;;;;;;24.60;88.50;;;;;;5073791;28;19913;-50
2023/06/24 12:10:44;;;;;;;;;;;24.70;88.90;;;;;;5073702;28;20263;-49
2023/06/24 12:13:10;;;;;;;;;;;24.70;89.10;;;;;;5055836;28;19919;-51
2023/06/24 12:15:35;;;;;;;;;;;24.70;89.30;;;;;;5073967;28;20011;-54
2023/06/24 12:18:02;;;;;;;;;;;24.70;89.30;;;;;;5074127;28;19909;-53
2023/06/24 12:20:28;;;;;;;;;;;24.70;89.20;;;;;;5073823;28;20351;-52
2023/06/24 12:22:54;;;;;;;;;;;24.70;89.30;;;;;;5074007;28;19909;-52
2023/06/24 12:25:20;;;;;;;;;;;24.60;89.20;;;;;;5073483;28;19912;-51
2023/06/24 12:27:45;;;;;;;;;;;24.70;89.20;;;;;;5073987;28;19963;-50
2023/06/24 12:30:11;;;;;;;;;;;24.60;89.10;;;;;;5073815;28;20305;-50
2023/06/24 12:32:37;;;;;;;;;;;24.60;88.90;;;;;;5073829;28;20366;-52
2023/06/24 12:35:03;;;;;;;;;;;24.60;88.90;;;;;;5073533;28;19909;-50
2023/06/24 12:37:32;;;;;;;;;;;24.70;89.10;;;;;;5055867;28;19916;-54
2023/06/24 12:39:58;;;;;;;;;;;24.70;89.40;;;;;;5073699;28;19993;-54
2023/06/24 12:42:24;;;;;;;;;;;24.60;89.50;;;;;;5055921;28;19959;-51
2023/06/24 12:44:50;;;;;;;;;;;24.60;89.60;;;;;;5073902;28;19923;-49
2023/06/24 12:47:15;;;;;;;;;;;24.70;89.70;;;;;;5073532;28;19943;-52
2023/06/24 12:49:41;;;;;;;;;;;24.60;89.60;;;;;;5074015;28;19961;-49
2023/06/24 12:52:06;;;;;;;;;;;24.60;89.60;;;;;;5073770;28;20006;-53
2023/06/24 12:54:32;;;;;;;;;;;24.60;89.60;;;;;;5072966;28;19909;-50
2023/06/24 12:56:57;;;;;;;;;;;24.70;89.30;;;;;;5073190;28;19961;-50
2023/06/24 12:59:23;;;;;;;;;;;24.70;89.20;;;;;;5073340;28;19913;-51
2023/06/24 13:01:48;;;;;;;;;;;24.70;89.00;;;;;;5073412;28;19912;-53
2023/06/24 13:04:14;;;;;;;;;;;24.60;89.20;;;;;;5073738;28;19924;-52
2023/06/24 13:06:40;;;;;;;;;;;24.70;89.50;;;;;;5054987;28;19909;-52
2023/06/24 13:09:05;;;;;;;;;;;24.70;89.70;;;;;;5073241;28;20312;-51
2023/06/24 13:11:31;;;;;;;;;;;24.60;89.70;;;;;;5073292;28;19909;-50
2023/06/24 13:13:56;;;;;;;;;;;24.70;89.80;;;;;;5055892;28;19908;-49
2023/06/24 13:16:21;;;;;;;;;;;24.70;89.80;;;;;;5074959;28;19915;-52
2023/06/24 13:18:47;;;;;;;;;;;24.70;89.80;;;;;;5076851;28;20378;-53
2023/06/24 13:21:13;;;;;;;;;;;24.70;89.90;;;;;;5076727;28;20252;-53
2023/06/24 13:23:39;;;;;;;;;;;24.70;89.90;;;;;;5077292;28;19966;-52
2023/06/24 13:26:06;;;;;;;;;;;24.70;89.90;;;;;;5059099;28;20011;-51
2023/06/24 13:28:31;;;;;;;;;;;24.70;90.00;;;;;;5076707;28;19908;-49
2023/06/24 13:30:57;;;;;;;;;;;24.70;90.00;;;;;;5059022;28;19909;-52
2023/06/24 13:33:22;;;;;;;;;;;24.70;90.00;;;;;;5076992;28;20314;-54
2023/06/24 13:35:49;;;;;;;;;;;24.70;89.80;;;;;;5076655;28;19992;-54
2023/06/24 13:38:14;;;;;;;;;;;24.60;89.40;;;;;;5076866;28;19909;-53
2023/06/24 13:40:40;;;;;;;;;;;24.60;89.20;;;;;;5076712;28;19916;-49
2023/06/24 13:43:06;;;;;;;;;;;24.60;89.20;;;;;;5076419;28;19919;-49
2023/06/24 13:45:31;;;;;;;;;;;24.60;89.10;;;;;;5076274;28;19923;-51
2023/06/24 13:47:57;;;;;;;;;;;24.60;89.10;;;;;;5076302;28;19920;-53
2023/06/24 13:50:22;;;;;;;;;;;24.60;89.30;;;;;;5076414;28;19916;-50
2023/06/24 13:52:48;;;;;;;;;;;24.70;89.70;;;;;;5076275;28;19916;-51
2023/06/24 13:55:13;;;;;;;;;;;24.60;89.80;;;;;;5076612;28;19915;-51
2023/06/24 13:57:39;;;;;;;;;;;24.70;90.00;;;;;;5076187;28;19908;-52
2023/06/24 14:00:05;;;;;;;;;;;24.60;90.00;;;;;;5076034;28;19952;-52
2023/06/24 14:02:30;;;;;;;;;;;24.60;90.00;;;;;;5076321;28;19909;-53
2023/06/24 14:04:56;;;;;;;;;;;24.60;90.00;;;;;;5076445;28;19920;-52
2023/06/24 14:07:21;;;;;;;;;;;24.70;90.00;;;;;;5076399;28;19909;-51
2023/06/24 14:09:47;;;;;;;;;;;24.70;90.00;;;;;;5075870;28;19974;-51